Time;durP1;ratioP1;P1;durP2;ratioP2;P2;SDS_P1;SDS_P2;PMS_P1;PMS_P2;Temp;Humidity;BMP_temperature;BMP_pressure;BME280_temperature;BME280_humidity;BME280_pressure;Samples;Min_cycle;Max_cycle;Signal;HPM_P1;HPM_P2
2020/12/25 00:01:35;;;;;;;11.18;5.28;;;4.50;99.90;;;;;;5028271;28;20494;-74
2020/12/25 00:04:01;;;;;;;10.70;5.60;;;4.50;99.90;;;;;;5027020;28;20356;-73
2020/12/25 00:06:37;;;;;;;10.88;5.53;;;4.50;99.90;;;;;;5018205;28;20037;-73
2020/12/25 00:09:06;;;;;;;10.45;5.50;;;4.50;99.90;;;;;;5029016;28;20049;-73
2020/12/25 00:11:34;;;;;;;9.18;4.65;;;4.60;99.90;;;;;;5021670;28;20180;-74
2020/12/25 00:14:03;;;;;;;12.48;5.40;;;4.50;99.90;;;;;;5042721;28;20026;-73
2020/12/25 00:16:29;;;;;;;10.10;5.63;;;4.50;99.90;;;;;;5024734;28;20153;-73
2020/12/25 00:18:57;;;;;;;9.68;5.05;;;4.50;99.90;;;;;;5057977;28;20483;-73
2020/12/25 00:21:22;;;;;;;8.75;5.10;;;4.50;99.90;;;;;;5018118;28;20060;-73
2020/12/25 00:23:48;;;;;;;9.63;5.18;;;4.40;99.90;;;;;;5023269;28;20463;-73
2020/12/25 00:26:24;;;;;;;9.32;5.40;;;4.50;99.90;;;;;;5025210;28;20029;-73
2020/12/25 00:28:50;;;;;;;11.30;5.35;;;4.50;99.90;;;;;;5025109;28;20067;-73
2020/12/25 00:31:26;;;;;;;11.40;5.55;;;4.50;99.90;;;;;;5047683;28;20176;-73
2020/12/25 00:33:52;;;;;;;10.05;5.85;;;4.40;99.90;;;;;;5015139;28;20137;-73
2020/12/25 00:36:26;;;;;;;10.88;4.93;;;4.40;99.90;;;;;;5030040;28;20049;-73
2020/12/25 00:38:52;;;;;;;12.27;5.35;;;4.40;99.90;;;;;;5016893;28;20034;-73
2020/12/25 00:41:18;;;;;;;10.02;5.10;;;4.30;99.90;;;;;;5046454;28;20034;-73
2020/12/25 00:43:46;;;;;;;10.57;5.60;;;4.40;99.90;;;;;;5015899;28;20131;-73
2020/12/25 00:46:12;;;;;;;10.13;4.53;;;4.30;99.90;;;;;;5030298;28;20502;-73
2020/12/25 00:48:38;;;;;;;6.82;4.40;;;4.40;99.90;;;;;;5013915;28;20037;-73
2020/12/25 00:51:06;;;;;;;10.82;5.07;;;4.40;99.90;;;;;;5014975;28;20029;-73
2020/12/25 00:53:32;;;;;;;10.88;5.07;;;4.40;99.90;;;;;;5056716;28;20033;-73
2020/12/25 00:55:58;;;;;;;10.32;5.20;;;4.40;99.90;;;;;;5036035;28;20029;-73
2020/12/25 00:58:26;;;;;;;11.85;5.43;;;4.40;99.90;;;;;;5028844;28;20037;-73
2020/12/25 01:00:54;;;;;;;11.13;5.65;;;4.40;99.90;;;;;;5017320;28;20112;-73
2020/12/25 01:03:19;;;;;;;9.43;5.35;;;4.30;99.90;;;;;;5013970;28;20037;-73
2020/12/25 01:05:45;;;;;;;8.82;5.00;;;4.30;99.90;;;;;;5047481;28;20068;-73
2020/12/25 01:08:11;;;;;;;8.88;5.10;;;4.20;99.90;;;;;;5015402;28;20731;-73
2020/12/25 01:10:36;;;;;;;8.95;4.63;;;4.20;99.90;;;;;;5014551;28;20450;-73
2020/12/25 01:13:02;;;;;;;8.52;4.68;;;4.20;99.90;;;;;;5014056;28;20434;-73
2020/12/25 01:15:27;;;;;;;8.82;5.00;;;4.20;99.90;;;;;;5045896;28;20029;-73
2020/12/25 01:17:53;;;;;;;9.25;4.80;;;4.20;99.90;;;;;;5015471;28;20033;-73
2020/12/25 01:20:19;;;;;;;11.20;5.05;;;4.20;99.90;;;;;;5014033;28;20057;-73
2020/12/25 01:22:47;;;;;;;9.40;4.60;;;4.20;99.90;;;;;;5013440;28;20071;-73
2020/12/25 01:25:12;;;;;;;9.43;4.50;;;4.20;99.90;;;;;;5021013;28;20540;-73
2020/12/25 01:27:38;;;;;;;7.68;4.20;;;4.20;99.90;;;;;;5020878;28;20038;-73
2020/12/25 01:30:06;;;;;;;10.25;4.72;;;4.20;99.90;;;;;;5023452;28;20075;-73
2020/12/25 01:32:35;;;;;;;8.50;4.00;;;4.20;99.90;;;;;;5015919;28;20569;-73
2020/12/25 01:35:02;;;;;;;7.90;3.97;;;4.10;99.90;;;;;;5019315;28;20037;-73
2020/12/25 01:37:27;;;;;;;6.70;4.07;;;4.10;99.90;;;;;;5036416;28;20022;-73
2020/12/25 01:39:55;;;;;;;8.48;3.90;;;4.10;99.90;;;;;;5038722;28;20067;-73
2020/12/25 01:42:23;;;;;;;9.02;4.22;;;4.10;99.90;;;;;;5015062;28;20133;-73
2020/12/25 01:44:49;;;;;;;8.02;4.20;;;4.10;99.90;;;;;;5013434;28;20052;-74
2020/12/25 01:47:16;;;;;;;8.23;3.78;;;4.00;99.90;;;;;;5013872;28;20029;-72
2020/12/25 01:49:42;;;;;;;7.85;3.90;;;4.10;99.90;;;;;;5014399;28;20026;-73
2020/12/25 01:52:11;;;;;;;6.75;3.80;;;4.00;99.90;;;;;;5027525;28;20026;-73
2020/12/25 01:54:38;;;;;;;7.13;3.70;;;4.00;99.90;;;;;;5045068;28;20386;-72
2020/12/25 01:57:06;;;;;;;10.25;4.15;;;3.90;99.90;;;;;;5045075;28;20090;-73
2020/12/25 01:59:32;;;;;;;7.78;3.70;;;3.90;99.90;;;;;;5013938;28;20068;-73
2020/12/25 02:01:58;;;;;;;6.97;3.47;;;3.90;99.90;;;;;;5021050;28;20105;-73
2020/12/25 02:04:24;;;;;;;7.60;3.50;;;3.90;99.90;;;;;;5023231;28;20029;-73
2020/12/25 02:06:50;;;;;;;7.70;3.28;;;3.80;99.90;;;;;;5017426;28;20076;-72
2020/12/25 02:09:17;;;;;;;7.45;3.35;;;3.90;99.90;;;;;;5014144;28;20045;-72
2020/12/25 02:11:43;;;;;;;5.95;3.50;;;3.90;99.90;;;;;;5045375;28;20478;-72
2020/12/25 02:14:14;;;;;;;9.48;3.75;;;3.80;99.90;;;;;;5002237;28;20021;-72
2020/12/25 02:16:42;;;;;;;6.15;3.42;;;3.80;99.90;;;;;;5012311;28;20035;-73
2020/12/25 02:19:08;;;;;;;5.57;3.13;;;3.80;99.90;;;;;;5057427;28;20087;-73
2020/12/25 02:21:34;;;;;;;6.43;3.40;;;3.80;99.90;;;;;;5026231;28;20037;-73
2020/12/25 02:24:00;;;;;;;9.27;3.35;;;3.80;99.90;;;;;;5038631;28;20037;-72
2020/12/25 02:26:28;;;;;;;7.78;3.47;;;3.80;99.90;;;;;;5025230;28;20059;-73
2020/12/25 02:28:53;;;;;;;6.18;3.15;;;3.80;99.90;;;;;;5026275;28;20462;-73
2020/12/25 02:31:19;;;;;;;6.45;3.42;;;3.80;99.90;;;;;;5025872;28;20025;-73
2020/12/25 02:33:47;;;;;;;5.75;3.25;;;3.80;99.90;;;;;;5027526;28;20022;-73
2020/12/25 02:36:13;;;;;;;6.50;3.15;;;3.80;99.90;;;;;;5026692;28;20037;-73
2020/12/25 02:38:40;;;;;;;6.40;3.30;;;3.80;99.90;;;;;;5012231;28;20029;-73
2020/12/25 02:41:06;;;;;;;6.68;3.17;;;3.70;99.90;;;;;;5064844;28;20056;-73
2020/12/25 02:43:34;;;;;;;8.38;3.63;;;3.70;99.90;;;;;;5032568;28;20022;-73
2020/12/25 02:46:02;;;;;;;6.28;3.30;;;3.80;99.90;;;;;;5031940;28;20034;-73
2020/12/25 02:48:30;;;;;;;7.28;3.13;;;3.70;99.90;;;;;;5063167;28;20046;-73
2020/12/25 02:50:55;;;;;;;6.97;3.13;;;3.80;99.90;;;;;;5031933;28;20091;-73
2020/12/25 02:53:21;;;;;;;5.47;3.35;;;3.80;99.90;;;;;;5027353;28;20018;-72
2020/12/25 02:55:46;;;;;;;7.32;3.47;;;3.80;99.90;;;;;;5030147;28;20037;-73
2020/12/25 02:58:14;;;;;;;7.55;3.40;;;3.80;99.90;;;;;;5030961;28;20022;-73
2020/12/25 03:00:40;;;;;;;6.60;3.20;;;3.80;99.90;;;;;;5030382;28;20052;-73
2020/12/25 03:03:06;;;;;;;7.97;3.42;;;3.80;99.90;;;;;;5030375;28;20029;-73
2020/12/25 03:05:31;;;;;;;6.43;3.42;;;3.90;99.90;;;;;;5032686;28;20037;-73
2020/12/25 03:07:59;;;;;;;7.72;3.95;;;3.90;99.90;;;;;;5029681;28;20022;-73
2020/12/25 03:10:25;;;;;;;6.03;3.33;;;3.80;99.90;;;;;;5019290;28;20121;-73
2020/12/25 03:12:53;;;;;;;6.53;3.38;;;3.80;99.90;;;;;;5017203;28;20075;-72
2020/12/25 03:15:18;;;;;;;7.20;3.50;;;3.80;99.90;;;;;;5018971;28;20137;-72
2020/12/25 03:17:44;;;;;;;8.18;3.50;;;3.80;99.90;;;;;;5031347;28;20037;-72
2020/12/25 03:20:12;;;;;;;6.38;3.38;;;3.80;99.90;;;;;;5016030;28;20450;-73
2020/12/25 03:22:42;;;;;;;7.22;3.67;;;3.80;99.90;;;;;;5046714;28;20045;-73
2020/12/25 03:25:08;;;;;;;9.07;3.70;;;3.80;99.90;;;;;;5048748;28;20107;-72
2020/12/25 03:27:34;;;;;;;9.15;3.88;;;3.70;99.90;;;;;;5048943;28;20029;-72
2020/12/25 03:30:02;;;;;;;8.38;3.53;;;3.70;99.90;;;;;;5016790;28;20051;-72
2020/12/25 03:32:28;;;;;;;7.10;3.85;;;3.70;99.90;;;;;;5031406;28;20479;-72
2020/12/25 03:34:54;;;;;;;6.20;3.72;;;3.70;99.90;;;;;;5016845;28;20035;-72
2020/12/25 03:37:25;;;;;;;7.53;4.00;;;3.70;99.90;;;;;;5017836;28;20064;-72
2020/12/25 03:39:50;;;;;;;6.55;3.55;;;3.70;99.90;;;;;;5016033;28;20124;-71
2020/12/25 03:42:16;;;;;;;6.35;3.45;;;3.70;99.90;;;;;;5016882;28;20038;-72
2020/12/25 03:44:44;;;;;;;8.23;3.70;;;3.70;99.90;;;;;;5016352;28;20462;-72
2020/12/25 03:47:09;;;;;;;6.38;3.60;;;3.70;99.90;;;;;;5015982;28;20774;-72
2020/12/25 03:49:35;;;;;;;8.13;3.75;;;3.80;99.90;;;;;;5013759;28;20033;-72
2020/12/25 03:52:01;;;;;;;6.35;3.70;;;3.70;99.90;;;;;;5014965;28;20336;-72
2020/12/25 03:54:26;;;;;;;7.30;3.53;;;3.80;99.90;;;;;;5016766;28;20103;-72
2020/12/25 03:56:52;;;;;;;6.53;4.00;;;3.80;99.90;;;;;;5016266;28;20037;-72
2020/12/25 03:59:20;;;;;;;7.70;4.00;;;3.70;99.90;;;;;;5021083;28;20033;-72
2020/12/25 04:01:50;;;;;;;6.82;3.90;;;3.80;99.90;;;;;;5015855;28;20044;-72
2020/12/25 04:04:19;;;;;;;6.25;3.40;;;3.80;99.90;;;;;;5017994;28;20095;-72
2020/12/25 04:06:47;;;;;;;6.47;3.70;;;3.80;99.90;;;;;;5017190;28;20095;-72
2020/12/25 04:09:12;;;;;;;5.90;3.53;;;3.80;99.90;;;;;;5047410;28;20387;-72
2020/12/25 04:11:40;;;;;;;6.95;3.67;;;3.80;99.90;;;;;;5047826;28;20045;-72
2020/12/25 04:14:09;;;;;;;6.55;3.60;;;3.80;99.90;;;;;;5014737;28;20025;-72
2020/12/25 04:16:37;;;;;;;6.32;3.50;;;3.80;99.90;;;;;;5046893;28;20041;-72
2020/12/25 04:19:02;;;;;;;6.53;3.90;;;3.80;99.90;;;;;;5016102;28;21834;-72
2020/12/25 04:21:28;;;;;;;7.10;3.78;;;3.80;99.90;;;;;;5025177;28;20037;-72
2020/12/25 04:23:54;;;;;;;6.75;3.55;;;3.80;99.90;;;;;;5045080;28;20044;-72
2020/12/25 04:26:24;;;;;;;6.45;3.80;;;3.80;99.90;;;;;;5020296;28;20030;-73
2020/12/25 04:28:49;;;;;;;6.68;3.67;;;3.90;99.90;;;;;;5030113;28;20041;-73
2020/12/25 04:31:15;;;;;;;6.20;3.63;;;3.80;99.90;;;;;;5014925;28;20030;-73
2020/12/25 04:33:43;;;;;;;8.20;4.18;;;3.80;99.90;;;;;;5047436;28;20088;-73
2020/12/25 04:36:09;;;;;;;5.80;3.70;;;3.80;99.90;;;;;;5054185;28;20160;-73
2020/12/25 04:38:35;;;;;;;6.75;3.90;;;3.80;99.90;;;;;;5027745;28;20471;-73
2020/12/25 04:41:01;;;;;;;7.20;3.70;;;3.80;99.90;;;;;;5033082;28;21847;-72
2020/12/25 04:43:27;;;;;;;7.32;4.13;;;3.80;99.90;;;;;;5014773;28;20030;-72
2020/12/25 04:45:53;;;;;;;8.32;3.72;;;3.80;99.90;;;;;;5029491;28;20106;-73
2020/12/25 04:48:19;;;;;;;6.97;4.10;;;3.80;99.90;;;;;;5058795;28;20141;-72
2020/12/25 04:50:45;;;;;;;9.50;4.75;;;3.80;99.90;;;;;;5027870;28;20029;-72
2020/12/25 04:53:13;;;;;;;7.82;4.10;;;3.80;99.90;;;;;;5058232;28;20025;-73
2020/12/25 04:55:38;;;;;;;6.38;4.15;;;3.70;99.90;;;;;;5018333;28;20051;-73
2020/12/25 04:58:04;;;;;;;7.07;4.10;;;3.70;99.90;;;;;;5038897;28;20459;-73
2020/12/25 05:00:32;;;;;;;7.60;4.35;;;3.70;99.90;;;;;;5016765;28;20044;-73
2020/12/25 05:02:58;;;;;;;8.32;4.40;;;3.70;99.90;;;;;;5026710;28;20041;-73
2020/12/25 05:05:30;;;;;;;8.73;4.10;;;3.70;99.90;;;;;;5054283;28;20351;-73
2020/12/25 05:07:59;;;;;;;7.65;4.20;;;3.70;99.90;;;;;;5014745;28;20033;-73
2020/12/25 05:10:26;;;;;;;7.20;3.97;;;3.70;99.90;;;;;;5016113;28;20045;-73
2020/12/25 05:12:53;;;;;;;6.75;4.15;;;3.70;99.90;;;;;;5047688;28;20160;-73
2020/12/25 05:15:19;;;;;;;7.90;4.18;;;3.70;99.90;;;;;;5026200;28;20029;-73
2020/12/25 05:17:48;;;;;;;6.75;3.95;;;3.70;99.90;;;;;;5055004;28;20022;-73
2020/12/25 05:20:13;;;;;;;8.15;4.55;;;3.70;99.90;;;;;;5014504;28;20053;-73
2020/12/25 05:22:41;;;;;;;6.80;4.10;;;3.60;99.90;;;;;;5054260;28;20849;-73
2020/12/25 05:25:10;;;;;;;6.45;3.70;;;3.70;99.90;;;;;;5028115;28;20037;-73
2020/12/25 05:27:35;;;;;;;7.45;4.38;;;3.70;99.90;;;;;;5044560;28;20056;-74
2020/12/25 05:30:05;;;;;;;8.30;4.53;;;3.70;99.90;;;;;;5028236;28;20033;-73
2020/12/25 05:32:37;;;;;;;7.65;4.20;;;3.70;99.90;;;;;;5017080;28;20366;-73
2020/12/25 05:35:02;;;;;;;9.25;4.45;;;3.70;99.90;;;;;;5055968;28;20057;-73
2020/12/25 05:37:35;;;;;;;7.20;4.28;;;3.70;99.90;;;;;;5024629;28;20091;-73
2020/12/25 05:40:04;;;;;;;7.65;4.13;;;3.70;99.90;;;;;;4998508;28;20030;-73
2020/12/25 05:42:31;;;;;;;9.48;4.65;;;3.70;99.90;;;;;;5046640;28;20029;-73
2020/12/25 05:45:01;;;;;;;7.07;4.15;;;3.70;99.90;;;;;;5046702;28;20045;-73
2020/12/25 05:47:27;;;;;;;7.70;4.50;;;3.60;99.90;;;;;;5013911;28;20940;-73
2020/12/25 05:49:53;;;;;;;7.50;4.35;;;3.60;99.90;;;;;;5044975;28;20049;-73
2020/12/25 05:52:18;;;;;;;7.18;4.20;;;3.60;99.90;;;;;;5045081;28;20034;-73
2020/12/25 05:54:45;;;;;;;7.00;4.25;;;3.60;99.90;;;;;;5028723;28;20095;-73
2020/12/25 05:57:10;;;;;;;7.40;4.40;;;3.60;99.90;;;;;;5044908;28;20109;-73
2020/12/25 05:59:36;;;;;;;8.45;4.55;;;3.60;99.90;;;;;;5045394;28;20041;-73
2020/12/25 06:02:05;;;;;;;11.18;4.70;;;3.70;99.90;;;;;;5008513;28;20029;-73
2020/12/25 06:04:34;;;;;;;8.27;4.63;;;3.60;99.90;;;;;;5026716;28;20033;-73
2020/12/25 06:07:00;;;;;;;7.97;4.82;;;3.70;99.90;;;;;;5043784;28;20463;-72
2020/12/25 06:09:30;;;;;;;9.52;5.38;;;3.70;99.90;;;;;;5013251;28;20073;-72
2020/12/25 06:11:56;;;;;;;8.70;4.93;;;3.70;99.90;;;;;;5045958;28;20041;-72
2020/12/25 06:14:21;;;;;;;8.43;5.15;;;3.70;99.90;;;;;;5013373;28;20022;-72
2020/12/25 06:16:58;;;;;;;8.57;4.93;;;3.80;99.90;;;;;;5016401;28;20728;-72
2020/12/25 06:19:50;;;;;;;8.88;5.50;;;3.80;99.90;;;;;;5045441;28;20037;-72
2020/12/25 06:22:20;;;;;;;8.25;4.90;;;3.70;99.90;;;;;;5024617;28;20132;-72
2020/12/25 06:24:50;;;;;;;8.57;5.07;;;3.70;99.90;;;;;;5026917;28;20029;-72
2020/12/25 06:27:18;;;;;;;8.57;5.15;;;3.70;99.90;;;;;;5020748;28;20174;-72
2020/12/25 06:29:44;;;;;;;8.00;5.22;;;3.60;99.90;;;;;;5013830;28;20059;-72
2020/12/25 06:32:13;;;;;;;7.30;4.80;;;3.60;99.90;;;;;;5027646;28;20060;-72
2020/12/25 06:34:48;;;;;;;6.88;4.82;;;3.70;99.90;;;;;;5013733;28;20029;-72
2020/12/25 06:37:16;;;;;;;10.02;5.70;;;3.70;99.90;;;;;;5013504;28;20040;-73
2020/12/25 06:39:52;;;;;;;6.93;4.88;;;3.70;99.90;;;;;;5013433;28;20047;-72
2020/12/25 06:42:34;;;;;;;8.68;5.32;;;3.60;99.90;;;;;;5015238;28;20069;-72
2020/12/25 06:45:00;;;;;;;8.70;4.80;;;3.60;99.90;;;;;;5012619;28;20034;-72
2020/12/25 06:47:29;;;;;;;7.45;4.80;;;3.60;99.90;;;;;;5012997;28;20033;-72
2020/12/25 06:49:55;;;;;;;7.43;4.82;;;3.60;99.90;;;;;;5012460;28;20053;-72
2020/12/25 06:52:28;;;;;;;7.10;4.43;;;3.50;99.90;;;;;;4998364;28;20030;-72
2020/12/25 06:54:55;;;;;;;6.85;4.63;;;3.50;99.90;;;;;;5026659;28;20026;-72
2020/12/25 06:57:32;;;;;;;8.18;5.20;;;3.50;99.90;;;;;;5028907;28;20037;-72
2020/12/25 06:59:58;;;;;;;7.53;4.72;;;3.50;99.90;;;;;;5028245;28;20782;-72
2020/12/25 07:02:26;;;;;;;8.43;5.05;;;3.50;99.90;;;;;;5043669;28;20120;-72
2020/12/25 07:04:58;;;;;;;8.10;4.85;;;3.60;99.90;;;;;;5026391;28;20052;-72
2020/12/25 07:07:24;;;;;;;8.55;4.68;;;3.50;99.90;;;;;;5027169;28;20038;-72
2020/12/25 07:09:49;;;;;;;8.05;4.43;;;3.50;99.90;;;;;;5026237;28;20103;-72
2020/12/25 07:12:18;;;;;;;9.82;5.57;;;3.40;99.90;;;;;;5013257;28;20303;-72
2020/12/25 07:14:44;;;;;;;7.63;4.40;;;3.50;99.90;;;;;;5028339;28;20060;-72
2020/12/25 07:17:10;;;;;;;7.82;4.47;;;3.50;99.90;;;;;;5011988;28;20034;-72
2020/12/25 07:19:36;;;;;;;7.00;4.03;;;3.40;99.90;;;;;;5013456;28;20049;-72
2020/12/25 07:22:03;;;;;;;8.68;4.78;;;3.40;99.90;;;;;;5013447;28;20038;-72
2020/12/25 07:24:29;;;;;;;8.75;4.45;;;3.40;99.90;;;;;;5013279;28;20139;-72
2020/12/25 07:26:55;;;;;;;7.38;4.30;;;3.40;99.90;;;;;;5048321;28;20903;-72
2020/12/25 07:29:23;;;;;;;9.45;4.63;;;3.30;99.90;;;;;;5015490;28;20406;-71
2020/12/25 07:31:55;;;;;;;8.20;4.45;;;3.30;99.90;;;;;;5015517;28;20037;-72
2020/12/25 07:34:23;;;;;;;8.30;4.90;;;3.20;99.90;;;;;;5016536;28;20025;-71
2020/12/25 07:36:49;;;;;;;7.57;4.60;;;3.20;99.90;;;;;;5046698;28;20036;-72
2020/12/25 07:39:15;;;;;;;7.78;4.63;;;3.10;99.90;;;;;;5047706;28;20036;-72
2020/12/25 07:41:44;;;;;;;7.03;4.35;;;3.00;99.90;;;;;;5047508;28;20332;-72
2020/12/25 07:44:09;;;;;;;8.60;4.40;;;3.00;99.90;;;;;;5016462;28;20038;-72
2020/12/25 07:46:37;;;;;;;7.18;4.13;;;3.00;99.90;;;;;;5046684;28;20025;-71
2020/12/25 07:49:03;;;;;;;6.75;3.95;;;3.00;99.90;;;;;;5017134;28;20059;-72
2020/12/25 07:51:31;;;;;;;7.35;4.30;;;3.00;99.90;;;;;;5048086;28;20067;-72
2020/12/25 07:54:00;;;;;;;6.85;4.07;;;3.00;99.90;;;;;;5015584;28;20060;-72
2020/12/25 07:56:30;;;;;;;8.50;4.20;;;3.00;99.90;;;;;;5046236;28;20034;-72
2020/12/25 07:58:59;;;;;;;6.93;4.20;;;2.90;99.90;;;;;;5046944;28;20029;-72
2020/12/25 08:01:27;;;;;;;7.00;3.90;;;2.90;99.90;;;;;;5015700;28;20036;-72
2020/12/25 08:03:56;;;;;;;6.75;3.70;;;2.80;99.90;;;;;;5020365;28;20061;-72
2020/12/25 08:06:23;;;;;;;6.97;3.80;;;2.70;99.90;;;;;;5016578;28;20103;-72
2020/12/25 08:08:52;;;;;;;7.95;3.90;;;2.70;99.90;;;;;;5030486;28;20057;-71
2020/12/25 08:11:18;;;;;;;6.78;3.63;;;2.70;99.90;;;;;;5012911;28;20368;-72
2020/12/25 08:13:57;;;;;;;7.03;3.95;;;2.70;99.90;;;;;;5016791;28;20041;-72
2020/12/25 08:16:27;;;;;;;5.55;3.63;;;2.70;99.90;;;;;;5046956;28;20040;-72
2020/12/25 08:18:58;;;;;;;6.07;3.60;;;2.70;99.90;;;;;;5047143;28;20026;-72
2020/12/25 08:21:39;;;;;;;6.70;3.78;;;2.70;99.90;;;;;;5028972;28;20056;-72
2020/12/25 08:24:07;;;;;;;5.85;3.50;;;2.70;99.90;;;;;;5027563;28;20040;-72
2020/12/25 08:26:40;;;;;;;7.55;3.63;;;2.70;99.90;;;;;;5028905;28;20030;-72
2020/12/25 08:29:06;;;;;;;6.20;3.58;;;2.70;99.90;;;;;;5015321;28;20029;-72
2020/12/25 08:31:40;;;;;;;6.50;3.55;;;2.70;99.90;;;;;;5014539;28;20030;-72
2020/12/25 08:34:08;;;;;;;6.28;3.67;;;2.70;99.90;;;;;;5028985;28;20053;-72
2020/12/25 08:36:34;;;;;;;8.07;3.35;;;2.70;99.90;;;;;;5014323;28;20076;-72
2020/12/25 08:38:59;;;;;;;7.22;3.50;;;2.70;99.90;;;;;;5017353;28;20167;-72
2020/12/25 08:41:30;;;;;;;6.78;3.13;;;2.70;99.90;;;;;;5045362;28;20064;-72
2020/12/25 08:44:11;;;;;;;6.45;3.00;;;2.70;99.90;;;;;;5028191;28;20075;-72
2020/12/25 08:46:39;;;;;;;7.55;3.00;;;2.70;99.90;;;;;;5024599;28;20025;-72
2020/12/25 08:49:05;;;;;;;5.13;3.25;;;2.70;99.90;;;;;;5015408;28;20470;-72
2020/12/25 08:51:34;;;;;;;5.47;3.20;;;2.70;99.90;;;;;;5031509;28;20053;-72
2020/12/25 08:54:00;;;;;;;5.50;3.28;;;2.60;99.90;;;;;;5017563;28;20040;-72
2020/12/25 08:56:31;;;;;;;5.47;3.00;;;2.60;99.90;;;;;;5028165;28;20026;-72
2020/12/25 08:59:08;;;;;;;5.50;3.13;;;2.60;99.90;;;;;;5014497;28;20026;-72
2020/12/25 09:01:37;;;;;;;6.38;3.20;;;2.60;99.90;;;;;;5013964;28;20100;-72
2020/12/25 09:04:03;;;;;;;5.10;3.00;;;2.60;99.90;;;;;;5045250;28;20033;-72
2020/12/25 09:06:30;;;;;;;5.18;3.35;;;2.60;99.90;;;;;;5013470;28;20487;-72
2020/12/25 09:08:58;;;;;;;6.07;3.30;;;2.60;99.90;;;;;;5014736;28;20136;-72
2020/12/25 09:11:25;;;;;;;5.38;3.00;;;2.60;99.90;;;;;;5014237;28;20033;-72
2020/12/25 09:13:53;;;;;;;6.13;3.22;;;2.60;99.90;;;;;;5045721;28;20041;-72
2020/12/25 09:16:21;;;;;;;5.82;3.03;;;2.60;99.90;;;;;;5028042;28;20409;-72
2020/12/25 09:18:47;;;;;;;5.85;3.05;;;2.60;99.90;;;;;;5014801;28;20113;-72
2020/12/25 09:21:15;;;;;;;6.32;3.33;;;2.50;99.90;;;;;;5045933;28;20041;-72
2020/12/25 09:23:43;;;;;;;8.32;3.17;;;2.50;99.90;;;;;;5046410;28;20459;-72
2020/12/25 09:26:12;;;;;;;7.18;2.90;;;2.50;99.90;;;;;;5044976;28;20068;-72
2020/12/25 09:28:38;;;;;;;6.28;2.92;;;2.60;99.90;;;;;;5045758;28;20348;-72
2020/12/25 09:31:07;;;;;;;6.55;3.20;;;2.50;99.90;;;;;;5027444;28;20048;-72
2020/12/25 09:33:33;;;;;;;6.13;3.22;;;2.50;99.90;;;;;;5014477;28;20640;-72
2020/12/25 09:36:01;;;;;;;6.00;3.38;;;2.50;99.90;;;;;;5028004;28;20100;-72
2020/12/25 09:38:26;;;;;;;6.40;3.20;;;2.50;99.90;;;;;;5013818;28;20033;-72
2020/12/25 09:40:55;;;;;;;7.28;3.30;;;2.60;99.90;;;;;;5045854;28;20037;-71
2020/12/25 09:43:20;;;;;;;6.53;3.22;;;2.60;99.90;;;;;;5034946;28;20034;-71
2020/12/25 09:45:49;;;;;;;5.82;3.22;;;2.50;99.90;;;;;;5013571;28;20048;-72
2020/12/25 09:48:16;;;;;;;5.25;3.08;;;2.60;99.90;;;;;;5018837;28;20095;-72
2020/12/25 09:50:43;;;;;;;6.68;3.13;;;2.60;99.90;;;;;;5014024;28;20561;-72
2020/12/25 09:53:10;;;;;;;6.10;3.40;;;2.60;99.90;;;;;;4998796;28;20049;-72
2020/12/25 09:55:40;;;;;;;7.13;3.53;;;2.60;99.90;;;;;;5017233;28;20021;-72
2020/12/25 09:58:10;;;;;;;6.03;3.28;;;2.60;99.90;;;;;;5044986;28;20037;-72
2020/12/25 10:00:36;;;;;;;6.97;3.17;;;2.60;99.90;;;;;;5034806;28;20506;-72
2020/12/25 10:03:02;;;;;;;7.15;3.20;;;2.60;99.90;;;;;;5046373;28;20047;-72
2020/12/25 10:05:30;;;;;;;6.47;3.28;;;2.60;99.90;;;;;;5028293;28;20095;-73
2020/12/25 10:07:55;;;;;;;6.38;3.10;;;2.60;99.90;;;;;;5014427;28;22008;-73
2020/12/25 10:10:26;;;;;;;7.40;3.20;;;2.60;99.90;;;;;;5012291;28;20045;-73
2020/12/25 10:12:54;;;;;;;5.38;2.90;;;2.60;99.90;;;;;;5028590;28;20026;-73
2020/12/25 10:15:20;;;;;;;5.32;3.00;;;2.60;99.90;;;;;;5011788;28;20029;-73
2020/12/25 10:17:51;;;;;;;5.93;3.35;;;2.60;99.90;;;;;;5044274;28;20029;-73
2020/12/25 10:20:19;;;;;;;4.53;2.90;;;2.70;99.90;;;;;;5014060;28;20719;-73
2020/12/25 10:22:47;;;;;;;6.50;3.00;;;2.60;99.90;;;;;;5013933;28;20045;-73
2020/12/25 10:25:18;;;;;;;5.47;2.65;;;2.60;99.90;;;;;;5012959;28;20033;-73
2020/12/25 10:27:44;;;;;;;6.00;3.35;;;2.70;99.90;;;;;;5012777;28;20302;-72
2020/12/25 10:30:10;;;;;;;5.65;2.65;;;2.70;99.90;;;;;;5012133;28;20570;-73
2020/12/25 10:32:37;;;;;;;5.22;2.75;;;2.70;99.90;;;;;;5027735;28;20026;-73
2020/12/25 10:35:05;;;;;;;6.85;3.00;;;2.70;99.90;;;;;;5011995;28;20876;-73
2020/12/25 10:37:31;;;;;;;5.60;3.00;;;2.70;99.90;;;;;;5012807;28;20109;-73
2020/12/25 10:39:57;;;;;;;4.57;2.60;;;2.70;99.90;;;;;;5012549;28;20048;-72
2020/12/25 10:42:25;;;;;;;6.25;2.63;;;2.70;99.90;;;;;;5044633;28;20744;-73
2020/12/25 10:44:51;;;;;;;5.22;2.60;;;2.70;99.90;;;;;;5027341;28;20037;-73
2020/12/25 10:47:19;;;;;;;8.35;4.20;;;2.80;99.90;;;;;;5013962;28;21945;-73
2020/12/25 10:49:47;;;;;;;5.82;3.15;;;2.80;99.90;;;;;;5044668;28;20045;-73
2020/12/25 10:52:15;;;;;;;5.43;2.97;;;2.80;99.90;;;;;;5011358;28;20025;-73
2020/12/25 10:54:41;;;;;;;6.10;2.80;;;2.80;99.90;;;;;;5043575;28;20022;-73
2020/12/25 10:57:08;;;;;;;6.82;2.78;;;2.80;99.90;;;;;;5044411;28;20032;-73
2020/12/25 10:59:34;;;;;;;6.70;2.78;;;2.90;99.90;;;;;;5013193;28;20034;-73
2020/12/25 11:02:00;;;;;;;5.45;3.10;;;2.80;99.90;;;;;;5035073;28;20029;-73
2020/12/25 11:04:25;;;;;;;6.63;2.80;;;2.90;99.90;;;;;;5016639;28;20064;-73
2020/12/25 11:06:53;;;;;;;5.78;2.75;;;2.90;99.90;;;;;;5049381;28;20103;-72
2020/12/25 11:09:19;;;;;;;6.20;2.85;;;2.90;99.90;;;;;;5015277;28;20511;-73
2020/12/25 11:11:44;;;;;;;5.57;2.78;;;2.90;99.90;;;;;;5018281;28;20029;-72
2020/12/25 11:14:13;;;;;;;4.75;2.63;;;2.90;99.90;;;;;;5015569;28;20057;-72
2020/12/25 11:16:41;;;;;;;6.32;2.70;;;2.90;99.90;;;;;;5021268;28;20033;-72
2020/12/25 11:19:10;;;;;;;5.30;2.80;;;2.90;99.90;;;;;;5016066;28;20095;-72
2020/12/25 11:21:36;;;;;;;3.95;2.40;;;2.90;99.90;;;;;;5017160;28;20750;-72
2020/12/25 11:24:02;;;;;;;4.25;2.40;;;2.90;99.90;;;;;;5033552;28;20033;-72
2020/12/25 11:26:29;;;;;;;5.22;2.35;;;3.00;99.90;;;;;;5014848;28;20402;-72
2020/12/25 11:28:56;;;;;;;5.32;2.47;;;3.00;99.90;;;;;;5018929;28;20427;-73
2020/12/25 11:31:24;;;;;;;7.38;2.70;;;2.90;99.90;;;;;;5015201;28;20061;-73
2020/12/25 11:33:52;;;;;;;5.80;2.78;;;3.00;99.90;;;;;;5017855;28;20093;-72
2020/12/25 11:36:22;;;;;;;5.47;2.55;;;3.00;99.90;;;;;;5016353;28;20033;-72
2020/12/25 11:38:49;;;;;;;4.85;2.42;;;2.90;99.90;;;;;;5015212;28;20032;-72
2020/12/25 11:41:16;;;;;;;6.90;2.65;;;2.90;99.90;;;;;;5046579;28;20044;-72
2020/12/25 11:43:44;;;;;;;5.63;2.22;;;3.00;99.90;;;;;;5016447;28;20121;-73
2020/12/25 11:46:12;;;;;;;6.05;2.28;;;3.00;99.90;;;;;;5046171;28;20433;-72
2020/12/25 11:48:41;;;;;;;6.65;2.50;;;3.00;99.90;;;;;;5019727;28;20479;-72
2020/12/25 11:51:07;;;;;;;6.38;2.60;;;3.00;99.90;;;;;;5021010;28;20037;-72
2020/12/25 11:53:37;;;;;;;5.53;2.40;;;3.00;99.90;;;;;;5021035;28;20025;-72
2020/12/25 11:56:03;;;;;;;6.60;2.90;;;3.00;99.90;;;;;;5046958;28;20030;-72
2020/12/25 11:58:29;;;;;;;4.90;2.17;;;3.00;99.90;;;;;;5048652;28;20026;-73
2020/12/25 12:00:58;;;;;;;5.80;2.65;;;3.00;99.90;;;;;;5014843;28;20033;-72
2020/12/25 12:03:25;;;;;;;5.80;2.38;;;3.00;99.90;;;;;;5047140;28;20546;-72
2020/12/25 12:05:53;;;;;;;5.22;2.50;;;3.10;99.90;;;;;;5016275;28;20510;-72
2020/12/25 12:08:19;;;;;;;5.13;2.00;;;3.00;99.90;;;;;;5030011;28;20048;-72
2020/12/25 12:10:45;;;;;;;3.72;2.08;;;3.10;99.90;;;;;;5028438;28;20038;-72
2020/12/25 12:13:10;;;;;;;6.90;2.20;;;3.10;99.90;;;;;;5014889;28;20508;-72
2020/12/25 12:15:39;;;;;;;5.60;2.10;;;3.10;99.90;;;;;;5046713;28;20915;-72
2020/12/25 12:18:05;;;;;;;5.00;2.10;;;3.10;99.90;;;;;;5015604;28;20064;-72
2020/12/25 12:20:31;;;;;;;5.00;1.92;;;3.10;99.90;;;;;;5047367;28;20116;-72
2020/12/25 12:22:57;;;;;;;4.18;1.88;;;3.10;99.90;;;;;;5046425;28;20030;-71
2020/12/25 12:25:23;;;;;;;4.45;1.95;;;3.10;99.90;;;;;;5014456;28;20040;-72
2020/12/25 12:27:48;;;;;;;4.25;2.15;;;3.10;99.90;;;;;;5028512;28;20025;-72
2020/12/25 12:30:14;;;;;;;4.65;2.33;;;3.20;99.90;;;;;;5046133;28;20034;-74
2020/12/25 12:32:39;;;;;;;3.72;1.77;;;3.20;99.90;;;;;;5045956;28;20120;-73
2020/12/25 12:35:05;;;;;;;3.90;1.90;;;3.20;99.90;;;;;;5014657;28;20029;-71
2020/12/25 12:37:34;;;;;;;4.53;1.80;;;3.30;99.90;;;;;;5045930;28;20025;-72
2020/12/25 12:39:59;;;;;;;3.78;1.63;;;3.20;99.90;;;;;;5044846;28;20038;-72
2020/12/25 12:42:25;;;;;;;4.50;1.83;;;3.30;99.90;;;;;;5012646;28;20037;-71
2020/12/25 12:44:53;;;;;;;4.28;1.70;;;3.30;99.90;;;;;;5015275;28;20029;-72
2020/12/25 12:47:21;;;;;;;3.95;1.77;;;3.20;99.90;;;;;;5015709;28;20087;-72
2020/12/25 12:49:47;;;;;;;3.78;1.70;;;3.20;99.90;;;;;;5014481;28;20047;-72
2020/12/25 12:52:12;;;;;;;5.63;2.30;;;3.30;99.90;;;;;;5013333;28;20041;-71
2020/12/25 12:54:38;;;;;;;3.78;1.70;;;3.30;99.90;;;;;;5031068;28;20075;-72
2020/12/25 12:57:04;;;;;;;3.35;1.60;;;3.30;99.90;;;;;;5014752;28;20084;-71